WXM80 ListenWXM80 Stop

You find our weather info also at:

UK Metoffice

WeatherCloud

Weather Underground

Northeastern Weather Network

AWEKAS

Citizen Weather Observer Program (CWOP)

HAMweather, WeatherForYou, PWS Weather


Weather Underground History page Text

Daily Summary for March 8, 2017 Units:  English    Metric   Both
« Previous Day
Next Day »
Daily Weekly Monthly Yearly Custom
  High: Low: Average:
Temperature: 59.9 °F 47.2 °F 52.6 °F
Dew Point: 50.3 °F 27.4 °F 39.4 °F
Humidity: 95 % 30 % 64 %
Wind Speed: 14.4 mph 0.0 mph 6.1 mph
Wind Gust: 23.0 mph - -
Wind:- - SW
Pressure: 29.98 in 29.84 in -
Precipitation: 0.00 in    
Historical Graphs
 
 
Tabular Data for March 8, 2017
Time Temperature Dew Point Pressure Wind Wind Speed Wind Gust Humidity Rainfall Rate (Hourly)
00:04 51.9 °F 47.2 °F 29.98 in South 4.5 mph 6.9 mph 84 % 0.00 in
00:09 52.0 °F 47.3 °F 29.98 in South 4.6 mph 8.1 mph 84 % 0.00 in
00:14 52.0 °F 47.3 °F 29.98 in SSW 7.0 mph 11.5 mph 84 % 0.00 in
00:19 52.1 °F 47.4 °F 29.97 in South 5.0 mph 6.9 mph 84 % 0.00 in
00:24 52.1 °F 47.4 °F 29.98 in South 4.7 mph 8.1 mph 84 % 0.00 in
00:29 52.1 °F 47.4 °F 29.97 in South 5.3 mph 8.0 mph 84 % 0.00 in
00:34 52.2 °F 47.5 °F 29.96 in South 4.5 mph 8.0 mph 84 % 0.00 in
00:39 52.3 °F 47.6 °F 29.96 in SSW 6.6 mph 12.0 mph 84 % 0.00 in
00:44 52.4 °F 47.7 °F 29.96 in SSW 5.6 mph 7.0 mph 84 % 0.00 in
00:50 52.6 °F 47.9 °F 29.95 in SSW 5.8 mph 11.5 mph 84 % 0.00 in
00:54 52.7 °F 48.0 °F 29.95 in SSW 4.0 mph 9.2 mph 84 % 0.00 in
01:00 52.8 °F 48.4 °F 29.95 in SSE 8.0 mph 12.0 mph 85 % 0.00 in
01:05 52.8 °F 48.4 °F 29.95 in South 6.6 mph 10.4 mph 85 % 0.00 in
01:10 52.8 °F 48.4 °F 29.95 in SSW 3.9 mph 10.4 mph 85 % 0.00 in
01:11 52.8 °F 48.4 °F 29.95 in SSE 5.6 mph 8.1 mph 85 % 0.00 in
01:16 52.8 °F 48.4 °F 29.95 in SSW 7.1 mph 12.7 mph 85 % 0.00 in
01:17 52.8 °F 48.4 °F 29.95 in SSW 5.6 mph 10.4 mph 85 % 0.00 in
01:22 52.9 °F 48.8 °F 29.94 in WSW 5.5 mph 9.2 mph 86 % 0.00 in
01:27 53.0 °F 48.9 °F 29.94 in SW 8.5 mph 11.5 mph 86 % 0.00 in
01:32 53.1 °F 49.3 °F 29.94 in SSW 6.3 mph 11.5 mph 87 % 0.00 in
01:37 53.1 °F 49.3 °F 29.94 in SSW 6.5 mph 8.1 mph 87 % 0.00 in
01:42 53.2 °F 49.4 °F 29.93 in South 6.6 mph 12.7 mph 87 % 0.00 in
01:47 53.2 °F 49.7 °F 29.93 in SW 4.3 mph 8.1 mph 88 % 0.00 in
01:52 53.1 °F 49.9 °F 29.92 in SW 4.7 mph 9.2 mph 89 % 0.00 in
01:57 53.1 °F 49.9 °F 29.92 in SSE 6.5 mph 13.0 mph 89 % 0.00 in
02:02 53.1 °F 49.9 °F 29.92 in SW 7.2 mph 19.0 mph 89 % 0.00 in
02:07 53.1 °F 50.2 °F 29.92 in South 5.5 mph 11.5 mph 90 % 0.00 in
02:12 53.1 °F 50.2 °F 29.92 in South 5.4 mph 11.5 mph 90 % 0.00 in
02:17 53.1 °F 50.2 °F 29.92 in SSW 5.7 mph 11.5 mph 90 % 0.00 in
02:23 53.1 °F 50.2 °F 29.92 in South 7.1 mph 12.7 mph 90 % 0.00 in
02:28 53.0 °F 50.1 °F 29.91 in SSE 6.8 mph 10.4 mph 90 % 0.00 in
02:33 52.9 °F 50.0 °F 29.91 in SSW 6.4 mph 8.1 mph 90 % 0.00 in
02:38 52.8 °F 49.9 °F 29.90 in SSW 5.0 mph 11.5 mph 90 % 0.00 in
02:43 52.7 °F 49.9 °F 29.90 in South 6.0 mph 12.0 mph 90 % 0.00 in
02:48 52.7 °F 49.8 °F 29.90 in SSW 7.0 mph 12.0 mph 90 % 0.00 in
02:53 52.6 °F 49.8 °F 29.90 in SSW 6.0 mph 13.0 mph 90 % 0.00 in
02:58 52.5 °F 49.7 °F 29.89 in South 6.1 mph 9.0 mph 90 % 0.00 in
03:03 52.4 °F 49.8 °F 29.88 in SSW 7.1 mph 9.0 mph 91 % 0.00 in
03:08 52.4 °F 49.8 °F 29.88 in South 11.2 mph 18.4 mph 91 % 0.00 in
03:13 52.4 °F 49.8 °F 29.88 in South 10.6 mph 17.3 mph 91 % 0.00 in
03:18 52.4 °F 49.8 °F 29.88 in SW 8.5 mph 15.0 mph 91 % 0.00 in
03:23 52.4 °F 49.6 °F 29.88 in South 8.5 mph 13.8 mph 90 % 0.00 in
03:29 52.3 °F 49.5 °F 29.87 in South 6.4 mph 10.4 mph 90 % 0.00 in
03:34 52.4 °F 49.8 °F 29.87 in South 7.3 mph 10.4 mph 91 % 0.00 in
03:39 52.5 °F 49.9 °F 29.86 in SSW 5.5 mph 10.0 mph 91 % 0.00 in
03:44 52.6 °F 50.0 °F 29.86 in SSW 8.4 mph 16.1 mph 91 % 0.00 in
03:49 52.7 °F 50.1 °F 29.86 in SSW 8.2 mph 16.1 mph 91 % 0.00 in
03:54 52.9 °F 50.3 °F 29.86 in SSW 5.4 mph 13.8 mph 91 % 0.00 in
03:59 53.0 °F 50.1 °F 29.86 in South 5.0 mph 16.1 mph 90 % 0.00 in
04:04 53.0 °F 50.1 °F 29.86 in SSW 6.7 mph 11.5 mph 90 % 0.00 in
04:09 53.0 °F 50.1 °F 29.85 in SSW 6.3 mph 12.7 mph 90 % 0.00 in
04:14 53.0 °F 50.1 °F 29.86 in SSW 4.4 mph 9.2 mph 90 % 0.00 in
04:20 53.0 °F 50.1 °F 29.86 in SSW 7.4 mph 10.0 mph 90 % 0.00 in
04:22 53.0 °F 50.1 °F 29.86 in South 5.4 mph 9.2 mph 90 % 0.00 in
04:27 53.0 °F 50.1 °F 29.86 in South 7.8 mph 10.4 mph 90 % 0.00 in
04:32 52.9 °F 50.0 °F 29.86 in SSW 8.1 mph 15.0 mph 90 % 0.00 in
04:37 52.8 °F 49.9 °F 29.86 in SW 8.1 mph 13.8 mph 90 % 0.00 in
04:43 52.8 °F 49.9 °F 29.86 in SSW 7.0 mph 11.5 mph 90 % 0.00 in
04:48 52.7 °F 49.8 °F 29.85 in SW 7.4 mph 13.0 mph 90 % 0.00 in
04:53 52.6 °F 49.8 °F 29.85 in South 6.4 mph 10.4 mph 90 % 0.00 in
04:58 52.5 °F 49.7 °F 29.84 in South 6.6 mph 11.5 mph 90 % 0.00 in
05:03 52.4 °F 49.6 °F 29.84 in South 8.6 mph 13.8 mph 90 % 0.00 in
05:08 52.4 °F 49.8 °F 29.84 in South 8.0 mph 15.0 mph 91 % 0.00 in
05:13 52.3 °F 49.8 °F 29.84 in South 7.0 mph 14.0 mph 91 % 0.00 in
05:18 52.3 °F 49.5 °F 29.85 in South 7.0 mph 13.0 mph 90 % 0.00 in
05:23 52.2 °F 49.7 °F 29.85 in SSW 6.0 mph 12.0 mph 91 % 0.00 in
05:28 52.1 °F 49.6 °F 29.85 in SSW 8.0 mph 20.0 mph 91 % 0.00 in
05:33 52.0 °F 49.7 °F 29.85 in SSW 8.0 mph 13.0 mph 92 % 0.00 in
05:38 51.8 °F 49.6 °F 29.85 in SSW 8.0 mph 18.0 mph 92 % 0.00 in
05:43 51.7 °F 49.7 °F 29.85 in South 6.3 mph 10.4 mph 93 % 0.00 in
05:48 51.5 °F 49.5 °F 29.85 in SSW 7.0 mph 12.0 mph 93 % 0.00 in
05:53 51.4 °F 49.4 °F 29.85 in SSW 5.4 mph 10.4 mph 93 % 0.00 in
05:58 51.3 °F 49.3 °F 29.85 in SSW 6.3 mph 13.0 mph 93 % 0.00 in
06:03 51.2 °F 49.2 °F 29.85 in South 6.0 mph 9.2 mph 93 % 0.00 in
06:08 51.2 °F 49.5 °F 29.85 in SSW 5.4 mph 10.4 mph 94 % 0.00 in
06:13 51.2 °F 49.5 °F 29.85 in SSW 9.3 mph 12.7 mph 94 % 0.00 in
06:18 51.2 °F 49.5 °F 29.85 in SSW 6.2 mph 11.5 mph 94 % 0.00 in
06:23 51.2 °F 49.8 °F 29.92 in West 14.4 mph 23.0 mph 95 % 0.00 in
06:28 50.4 °F 48.5 °F 29.92 in NW 10.3 mph 20.7 mph 93 % 0.00 in
06:29 50.3 °F 48.1 °F 29.92 in SW 9.3 mph 20.7 mph 92 % 0.00 in
06:34 49.5 °F 47.0 °F 29.92 in West 7.1 mph 12.0 mph 91 % 0.00 in
06:39 48.9 °F 46.1 °F 29.93 in WNW 5.3 mph 16.1 mph 90 % 0.00 in
06:44 48.3 °F 45.2 °F 29.93 in WSW 9.3 mph 15.0 mph 89 % 0.00 in
06:49 47.9 °F 44.8 °F 29.94 in WSW 7.1 mph 15.0 mph 89 % 0.00 in
06:54 47.7 °F 44.6 °F 29.93 in West 7.2 mph 12.7 mph 89 % 0.00 in
06:59 47.5 °F 44.1 °F 29.94 in WSW 7.1 mph 12.7 mph 88 % 0.00 in
07:04 47.4 °F 44.0 °F 29.94 in West 7.5 mph 18.4 mph 88 % 0.00 in
07:09 47.3 °F 43.6 °F 29.93 in WNW 4.9 mph 9.2 mph 87 % 0.00 in
07:14 47.3 °F 43.6 °F 29.93 in West 2.2 mph 4.0 mph 87 % 0.00 in
07:19 47.2 °F 43.2 °F 29.93 in West 1.4 mph 8.1 mph 86 % 0.00 in
07:25 47.2 °F 43.2 °F 29.93 in West 6.0 mph 6.9 mph 86 % 0.00 in
07:30 47.2 °F 42.9 °F 29.93 in West 5.1 mph 10.0 mph 85 % 0.00 in
07:35 47.3 °F 42.7 °F 29.93 in WSW 6.1 mph 6.1 mph 84 % 0.00 in
07:40 47.3 °F 42.7 °F 29.93 in WNW 1.0 mph 5.8 mph 84 % 0.00 in
07:45 47.3 °F 42.7 °F 29.92 in WSW 4.0 mph 9.2 mph 84 % 0.00 in
07:50 47.4 °F 42.8 °F 29.93 in WSW 3.8 mph 6.9 mph 84 % 0.00 in
07:55 47.4 °F 42.5 °F 29.92 in West 2.5 mph 4.0 mph 83 % 0.00 in
08:00 47.4 °F 42.5 °F 29.92 in West 0.2 mph 4.6 mph 83 % 0.00 in
08:05 47.5 °F 42.6 °F 29.92 in Calm   2.3 mph 83 % 0.00 in
08:10 47.5 °F 42.6 °F 29.92 in SW 1.1 mph 2.3 mph 83 % 0.00 in
08:15 47.6 °F 42.7 °F 29.91 in SW 0.3 mph 3.5 mph 83 % 0.00 in
08:20 47.6 °F 43.0 °F 29.92 in SW 2.7 mph 6.0 mph 84 % 0.00 in
08:25 47.5 °F 42.6 °F 29.93 in SW 4.1 mph 5.0 mph 83 % 0.00 in
08:30 47.5 °F 42.0 °F 29.92 in WSW 2.0 mph 3.5 mph 81 % 0.00 in
08:36 47.5 °F 42.3 °F 29.93 in West 4.2 mph 8.1 mph 82 % 0.00 in
08:41 47.6 °F 42.1 °F 29.93 in WSW 4.0 mph 12.0 mph 81 % 0.00 in
08:46 47.6 °F 42.1 °F 29.94 in SW 6.2 mph 8.0 mph 81 % 0.00 in
08:51 47.6 °F 41.7 °F 29.95 in SW 5.5 mph 9.2 mph 80 % 0.00 in
08:56 47.7 °F 41.5 °F 29.95 in WSW 11.9 mph 15.0 mph 79 % 0.00 in
09:01 47.8 °F 41.6 °F 29.96 in WSW 5.6 mph 11.5 mph 79 % 0.00 in
09:06 47.9 °F 41.4 °F 29.96 in WSW 7.4 mph 13.8 mph 78 % 0.00 in
09:08 47.9 °F 41.4 °F 29.95 in WSW 12.9 mph 15.0 mph 78 % 0.00 in
09:13 47.9 °F 41.4 °F 29.96 in WSW 10.4 mph 14.0 mph 78 % 0.00 in
09:18 48.0 °F 41.5 °F 29.96 in WSW 9.0 mph 17.0 mph 78 % 0.00 in
09:23 48.0 °F 41.1 °F 29.96 in WSW 8.0 mph 17.0 mph 77 % 0.00 in
09:28 48.1 °F 41.2 °F 29.96 in WSW 5.0 mph 17.0 mph 77 % 0.00 in
09:33 48.3 °F 40.8 °F 29.95 in West 8.0 mph 20.0 mph 75 % 0.00 in
09:38 48.6 °F 40.7 °F 29.96 in West 8.0 mph 16.0 mph 74 % 0.00 in
09:43 48.8 °F 40.5 °F 29.96 in West 8.0 mph 20.0 mph 73 % 0.00 in
09:48 49.0 °F 40.7 °F 29.96 in WSW 9.0 mph 17.0 mph 73 % 0.00 in
09:53 49.0 °F 40.0 °F 29.97 in West 10.0 mph 20.0 mph 71 % 0.00 in
09:58 49.0 °F 40.0 °F 29.96 in WNW 7.6 mph 13.8 mph 71 % 0.00 in
10:03 49.1 °F 40.1 °F 29.96 in NW 6.6 mph 12.7 mph 71 % 0.00 in
10:08 49.4 °F 40.7 °F 29.96 in West 6.3 mph 11.5 mph 72 % 0.00 in
10:13 49.7 °F 40.7 °F 29.97 in WNW 4.1 mph 9.2 mph 71 % 0.00 in
10:18 49.9 °F 40.1 °F 29.97 in WSW 9.0 mph 13.8 mph 69 % 0.00 in
10:23 50.1 °F 39.9 °F 29.97 in WSW 8.6 mph 16.0 mph 68 % 0.00 in
10:28 50.3 °F 39.8 °F 29.97 in NW 8.3 mph 18.4 mph 67 % 0.00 in
10:33 50.6 °F 39.7 °F 29.97 in WNW 7.3 mph 11.5 mph 66 % 0.00 in
10:38 50.8 °F 39.5 °F 29.97 in NW 5.3 mph 11.5 mph 65 % 0.00 in
10:43 50.9 °F 39.1 °F 29.97 in WNW 4.6 mph 10.4 mph 64 % 0.00 in
10:49 51.5 °F 40.1 °F 29.98 in West 6.6 mph 11.5 mph 65 % 0.00 in
10:54 51.8 °F 40.0 °F 29.98 in WSW 6.0 mph 10.4 mph 64 % 0.00 in
10:59 52.3 °F 40.5 °F 29.98 in WSW 4.9 mph 11.0 mph 64 % 0.00 in
11:04 52.6 °F 39.5 °F 29.98 in West 5.2 mph 10.4 mph 61 % 0.00 in
11:09 53.0 °F 39.5 °F 29.97 in West 8.0 mph 11.5 mph 60 % 0.00 in
11:14 53.5 °F 39.5 °F 29.97 in WNW 7.6 mph 13.8 mph 59 % 0.00 in
11:19 53.8 °F 39.4 °F 29.98 in West 6.6 mph 12.0 mph 58 % 0.00 in
11:24 54.2 °F 38.8 °F 29.98 in WNW 7.0 mph 13.8 mph 56 % 0.00 in
11:29 54.3 °F 38.5 °F 29.98 in WNW 4.5 mph 13.8 mph 55 % 0.00 in
11:34 54.7 °F 38.4 °F 29.97 in West 4.7 mph 11.5 mph 54 % 0.00 in
11:39 54.9 °F 38.1 °F 29.97 in WSW 7.1 mph 11.0 mph 53 % 0.00 in
11:44 55.1 °F 38.3 °F 29.97 in West 4.1 mph 9.2 mph 53 % 0.00 in
11:49 55.4 °F 39.0 °F 29.97 in NW 4.9 mph 9.2 mph 54 % 0.00 in
11:54 55.7 °F 38.3 °F 29.97 in West 6.1 mph 11.0 mph 52 % 0.00 in
11:59 55.7 °F 38.3 °F 29.97 in WNW 5.4 mph 9.0 mph 52 % 0.00 in
12:05 55.6 °F 37.7 °F 29.97 in SW 6.6 mph 9.2 mph 51 % 0.00 in
12:10 55.6 °F 37.7 °F 29.96 in WSW 5.8 mph 11.5 mph 51 % 0.00 in
12:15 55.9 °F 37.5 °F 29.96 in WSW 5.3 mph 11.5 mph 50 % 0.00 in
12:20 56.0 °F 37.6 °F 29.95 in SW 5.2 mph 12.7 mph 50 % 0.00 in
12:25 56.3 °F 38.9 °F 29.95 in NW 3.3 mph 6.9 mph 52 % 0.00 in
12:29 56.6 °F 37.6 °F 29.95 in WSW 5.5 mph 9.2 mph 49 % 0.00 in
12:34 56.8 °F 37.3 °F 29.95 in WSW 5.6 mph 9.2 mph 48 % 0.00 in
12:39 57.0 °F 37.0 °F 29.95 in WNW 3.9 mph 6.9 mph 47 % 0.00 in
12:44 57.3 °F 36.7 °F 29.95 in WSW 5.8 mph 9.2 mph 46 % 0.00 in
12:49 57.5 °F 36.9 °F 29.94 in WSW 7.0 mph 11.5 mph 46 % 0.00 in
12:54 57.7 °F 37.0 °F 29.94 in West 4.9 mph 6.9 mph 46 % 0.00 in
13:00 57.8 °F 35.4 °F 29.94 in West 8.7 mph 13.8 mph 43 % 0.00 in
13:05 57.6 °F 34.7 °F 29.93 in SSW 7.8 mph 9.0 mph 42 % 0.00 in
13:10 57.7 °F 34.1 °F 29.93 in WSW 5.1 mph 9.2 mph 41 % 0.00 in
13:15 57.7 °F 34.7 °F 29.93 in WNW 4.2 mph 9.2 mph 42 % 0.00 in
13:20 58.0 °F 34.4 °F 29.93 in West 0.8 mph 7.0 mph 41 % 0.00 in
13:25 58.2 °F 33.3 °F 29.92 in NW 1.5 mph 5.8 mph 39 % 0.00 in
13:30 58.5 °F 34.9 °F 29.92 in SW 4.4 mph 8.1 mph 41 % 0.00 in
13:35 58.8 °F 35.1 °F 29.91 in SW 2.8 mph 9.2 mph 41 % 0.00 in
13:40 59.0 °F 34.1 °F 29.91 in West 3.8 mph 5.8 mph 39 % 0.00 in
13:45 59.1 °F 34.8 °F 29.90 in WSW 4.4 mph 6.9 mph 40 % 0.00 in
13:50 59.3 °F 34.3 °F 29.90 in WSW 4.7 mph 8.1 mph 39 % 0.00 in
13:55 59.5 °F 33.2 °F 29.90 in West 6.5 mph 11.5 mph 37 % 0.00 in
14:01 59.6 °F 33.3 °F 29.90 in SW 6.1 mph 9.0 mph 37 % 0.00 in
14:06 59.8 °F 32.8 °F 29.90 in WSW 6.4 mph 9.0 mph 36 % 0.00 in
14:11 59.8 °F 31.3 °F 29.89 in West 5.8 mph 9.2 mph 34 % 0.00 in
14:16 59.8 °F 31.3 °F 29.89 in WSW 4.7 mph 8.1 mph 34 % 0.00 in
14:21 59.8 °F 31.3 °F 29.89 in WSW 5.1 mph 9.0 mph 34 % 0.00 in
14:26 59.9 °F 29.2 °F 29.89 in SW 4.5 mph 8.1 mph 31 % 0.00 in
14:31 59.9 °F 28.4 °F 29.89 in West 4.5 mph 11.5 mph 30 % 0.00 in
14:36 59.8 °F 29.1 °F 29.89 in WSW 4.8 mph 9.2 mph 31 % 0.00 in
14:41 59.7 °F 29.0 °F 29.88 in WNW 6.2 mph 11.5 mph 31 % 0.00 in
14:46 59.6 °F 28.1 °F 29.89 in West 7.9 mph 13.8 mph 30 % 0.00 in
14:51 59.4 °F 27.9 °F 29.88 in West 6.2 mph 13.0 mph 30 % 0.00 in
14:56 59.2 °F 27.7 °F 29.88 in WSW 4.6 mph 11.5 mph 30 % 0.00 in
15:01 59.1 °F 28.5 °F 29.88 in SW 8.8 mph 12.7 mph 31 % 0.00 in
15:06 59.0 °F 27.6 °F 29.88 in WSW 7.5 mph 17.0 mph 30 % 0.00 in
15:11 58.8 °F 27.4 °F 29.88 in ESE 7.3 mph 12.7 mph 30 % 0.00 in
15:17 58.7 °F 28.9 °F 29.88 in WNW 2.6 mph 10.4 mph 32 % 0.00 in
15:22 58.7 °F 28.9 °F 29.88 in West 10.5 mph 18.4 mph 32 % 0.00 in
15:27 58.6 °F 28.0 °F 29.87 in WSW 6.5 mph 12.0 mph 31 % 0.00 in
15:32 58.6 °F 28.8 °F 29.87 in SW 12.5 mph 13.8 mph 32 % 0.00 in
15:37 58.5 °F 28.7 °F 29.87 in SW 7.8 mph 11.5 mph 32 % 0.00 in
15:42 58.5 °F 28.7 °F 29.86 in SSW 10.5 mph 18.4 mph 32 % 0.00 in
15:47 58.4 °F 27.9 °F 29.87 in SW 7.0 mph 15.0 mph 31 % 0.00 in
15:52 58.4 °F 29.4 °F 29.87 in SW 9.2 mph 16.1 mph 33 % 0.00 in
15:57 58.4 °F 29.4 °F 29.87 in SW 7.0 mph 11.5 mph 33 % 0.00 in
16:02 58.4 °F 28.6 °F 29.87 in WSW 8.2 mph 13.8 mph 32 % 0.00 in
16:07 58.3 °F 28.5 °F 29.87 in WSW 6.5 mph 11.5 mph 32 % 0.00 in
16:12 58.3 °F 29.3 °F 29.87 in West 6.1 mph 9.2 mph 33 % 0.00 in
16:17 58.2 °F 28.5 °F 29.87 in WSW 11.4 mph 19.6 mph 32 % 0.00 in
16:23 58.1 °F 28.4 °F 29.87 in SW 9.6 mph 18.4 mph 32 % 0.00 in
16:28 58.0 °F 28.3 °F 29.87 in West 6.4 mph 9.2 mph 32 % 0.00 in
16:33 57.9 °F 28.9 °F 29.87 in WSW 3.9 mph 13.8 mph 33 % 0.00 in
16:38 57.8 °F 28.9 °F 29.87 in WSW 8.3 mph 15.0 mph 33 % 0.00 in
16:43 57.8 °F 28.1 °F 29.87 in WSW 8.4 mph 12.0 mph 32 % 0.00 in
16:48 57.8 °F 28.9 °F 29.86 in WSW 6.2 mph 11.5 mph 33 % 0.00 in
16:58 57.7 °F 28.0 °F 29.86 in SW 6.9 mph 18.4 mph 32 % 0.00 in
17:03 57.6 °F 28.7 °F 29.86 in SW 5.8 mph 13.8 mph 33 % 0.00 in
17:08 57.5 °F 29.3 °F 29.86 in WSW 5.7 mph 8.1 mph 34 % 0.00 in
17:13 57.5 °F 28.6 °F 29.86 in SW 8.5 mph 13.8 mph 33 % 0.00 in
17:18 57.4 °F 28.5 °F 29.86 in SW 3.1 mph 6.0 mph 33 % 0.00 in
17:23 57.3 °F 28.4 °F 29.86 in SW 5.9 mph 13.8 mph 33 % 0.00 in
17:28 57.1 °F 29.0 °F 29.86 in SSW 4.3 mph 8.1 mph 34 % 0.00 in
17:33 57.0 °F 29.6 °F 29.85 in South 4.7 mph 7.0 mph 35 % 0.00 in
17:39 56.8 °F 29.4 °F 29.86 in SW 6.5 mph 11.5 mph 35 % 0.00 in
17:44 56.6 °F 29.2 °F 29.85 in SW 6.1 mph 11.5 mph 35 % 0.00 in
17:49 56.4 °F 29.1 °F 29.85 in SSW 6.0 mph 9.2 mph 35 % 0.00 in
17:54 56.3 °F 29.0 °F 29.85 in SW 4.0 mph 6.9 mph 35 % 0.00 in
17:59 56.1 °F 29.5 °F 29.85 in SW 2.4 mph 6.9 mph 36 % 0.00 in
18:04 55.9 °F 29.3 °F 29.85 in SSW 5.0 mph 11.5 mph 36 % 0.00 in
18:09 55.7 °F 29.1 °F 29.85 in South 5.8 mph 6.9 mph 36 % 0.00 in
18:14 55.6 °F 29.0 °F 29.85 in SSW 4.9 mph 8.1 mph 36 % 0.00 in
18:19 55.4 °F 29.5 °F 29.86 in SW 2.9 mph 4.6 mph 37 % 0.00 in
18:24 55.3 °F 29.4 °F 29.86 in SSW 3.4 mph 4.6 mph 37 % 0.00 in
18:29 55.1 °F 29.9 °F 29.86 in SSW 1.0 mph 3.5 mph 38 % 0.00 in
18:34 54.7 °F 32.0 °F 29.86 in South 2.1 mph 4.6 mph 42 % 0.00 in
18:40 54.2 °F 33.3 °F 29.86 in SSW 5.5 mph 6.9 mph 45 % 0.00 in
18:45 53.6 °F 33.8 °F 29.86 in WSW 1.5 mph 5.8 mph 47 % 0.00 in
18:50 53.1 °F 34.4 °F 29.86 in South 4.2 mph 4.6 mph 49 % 0.00 in
18:55 52.5 °F 34.9 °F 29.86 in South 3.5 mph 8.1 mph 51 % 0.00 in
19:00 52.1 °F 35.0 °F 29.86 in SSE 3.8 mph 10.4 mph 52 % 0.00 in
19:05 51.6 °F 35.5 °F 29.86 in South 3.0 mph 5.8 mph 54 % 0.00 in
19:10 51.2 °F 36.0 °F 29.86 in South 4.5 mph 6.9 mph 56 % 0.00 in
19:15 50.7 °F 36.0 °F 29.86 in SSW 5.5 mph 8.1 mph 57 % 0.00 in
19:20 50.3 °F 36.1 °F 29.86 in SSW 3.4 mph 5.8 mph 58 % 0.00 in
19:25 49.9 °F 36.1 °F 29.85 in SW 3.0 mph 5.8 mph 59 % 0.00 in
19:30 49.5 °F 36.2 °F 29.85 in South 4.0 mph 6.9 mph 60 % 0.00 in
19:35 49.2 °F 36.3 °F 29.85 in SSW 5.6 mph 8.1 mph 61 % 0.00 in
19:41 49.0 °F 36.5 °F 29.85 in South 4.5 mph 11.5 mph 62 % 0.00 in
19:46 48.8 °F 36.4 °F 29.85 in South 4.4 mph 5.8 mph 62 % 0.00 in
19:51 48.7 °F 35.8 °F 29.85 in South 4.4 mph 6.9 mph 61 % 0.00 in
19:56 48.6 °F 35.7 °F 29.85 in South 6.0 mph 10.4 mph 61 % 0.00 in
20:01 48.7 °F 35.8 °F 29.85 in SSW 5.3 mph 8.1 mph 61 % 0.00 in
20:06 48.7 °F 35.4 °F 29.85 in SSE 5.7 mph 11.5 mph 60 % 0.00 in
20:11 48.8 °F 35.5 °F 29.85 in SSW 3.7 mph 8.1 mph 60 % 0.00 in
20:16 48.8 °F 35.5 °F 29.85 in SSW 4.3 mph 6.9 mph 60 % 0.00 in
20:21 48.9 °F 35.2 °F 29.86 in SSW 5.3 mph 9.0 mph 59 % 0.00 in
20:26 49.0 °F 35.3 °F 29.85 in South 6.0 mph 9.2 mph 59 % 0.00 in
20:31 49.1 °F 35.4 °F 29.85 in SSW 6.1 mph 8.1 mph 59 % 0.00 in
20:36 49.2 °F 35.5 °F 29.85 in SW 5.3 mph 12.7 mph 59 % 0.00 in
20:41 49.2 °F 35.5 °F 29.86 in SW 5.5 mph 10.4 mph 59 % 0.00 in
20:47 49.2 °F 35.9 °F 29.86 in SSW 6.1 mph 11.5 mph 60 % 0.00 in
20:52 49.2 °F 35.9 °F 29.86 in SSW 6.3 mph 11.5 mph 60 % 0.00 in
20:57 49.1 °F 35.8 °F 29.86 in South 5.8 mph 8.1 mph 60 % 0.00 in
21:02 49.1 °F 35.8 °F 29.86 in South 3.1 mph 8.0 mph 60 % 0.00 in
21:07 49.0 °F 36.1 °F 29.86 in SW 7.8 mph 12.0 mph 61 % 0.00 in
21:12 49.0 °F 36.1 °F 29.86 in SSW 9.4 mph 13.8 mph 61 % 0.00 in
21:17 49.0 °F 36.1 °F 29.87 in South 5.5 mph 11.5 mph 61 % 0.00 in
21:22 48.9 °F 36.0 °F 29.86 in SW 8.2 mph 12.7 mph 61 % 0.00 in
21:27 48.9 °F 36.4 °F 29.87 in SSW 5.3 mph 10.4 mph 62 % 0.00 in
21:32 48.8 °F 35.9 °F 29.87 in SSW 7.0 mph 11.5 mph 61 % 0.00 in
21:37 48.8 °F 35.9 °F 29.87 in SSW 5.6 mph 8.1 mph 61 % 0.00 in
21:42 48.8 °F 35.9 °F 29.87 in SW 4.0 mph 8.1 mph 61 % 0.00 in
21:47 48.8 °F 35.9 °F 29.87 in SSW 7.6 mph 17.3 mph 61 % 0.00 in
21:53 48.9 °F 35.6 °F 29.87 in SSW 8.1 mph 13.0 mph 60 % 0.00 in
21:58 49.0 °F 35.7 °F 29.87 in West 6.7 mph 11.5 mph 60 % 0.00 in
22:03 48.9 °F 36.0 °F 29.87 in SSW 7.1 mph 16.1 mph 61 % 0.00 in
22:08 49.0 °F 36.1 °F 29.87 in SW 5.0 mph 15.0 mph 61 % 0.00 in
22:13 49.0 °F 35.7 °F 29.87 in SSW 5.0 mph 15.0 mph 60 % 0.00 in
22:18 49.0 °F 35.7 °F 29.87 in SSW 7.0 mph 12.0 mph 60 % 0.00 in
22:23 49.0 °F 35.7 °F 29.87 in SSW 6.0 mph 17.0 mph 60 % 0.00 in
22:28 48.9 °F 35.7 °F 29.87 in SSW 8.0 mph 17.0 mph 60 % 0.00 in
22:33 48.8 °F 35.6 °F 29.87 in SSW 8.0 mph 13.0 mph 60 % 0.00 in
22:38 48.8 °F 35.1 °F 29.87 in SSW 6.0 mph 12.0 mph 59 % 0.00 in
22:43 48.9 °F 34.3 °F 29.87 in SW 6.0 mph 14.0 mph 57 % 0.00 in
22:48 49.2 °F 33.3 °F 29.86 in SW 9.1 mph 12.7 mph 54 % 0.00 in
22:53 49.8 °F 32.8 °F 29.86 in SW 7.0 mph 15.0 mph 52 % 0.00 in
22:58 50.1 °F 32.2 °F 29.86 in SW 7.0 mph 13.8 mph 50 % 0.00 in
23:03 50.3 °F 31.4 °F 29.86 in SW 8.0 mph 15.0 mph 48 % 0.00 in
23:08 50.6 °F 31.6 °F 29.86 in SW 3.0 mph 12.0 mph 48 % 0.00 in
23:13 50.6 °F 32.1 °F 29.86 in SSW 5.0 mph 12.0 mph 49 % 0.00 in
23:18 50.5 °F 33.0 °F 29.86 in SSW 8.0 mph 14.0 mph 51 % 0.00 in
23:23 50.3 °F 33.3 °F 29.86 in SW 4.5 mph 7.0 mph 52 % 0.00 in
23:28 50.1 °F 33.1 °F 29.86 in SSW 5.0 mph 10.0 mph 52 % 0.00 in
23:33 49.9 °F 33.0 °F 29.86 in SW 7.0 mph 12.0 mph 52 % 0.00 in
23:38 49.7 °F 31.8 °F 29.85 in SW 8.0 mph 13.0 mph 50 % 0.00 in
23:43 49.9 °F 30.5 °F 29.86 in SSW 9.4 mph 15.0 mph 47 % 0.00 in
23:48 50.4 °F 29.8 °F 29.86 in SW 6.0 mph 13.0 mph 45 % 0.00 in
23:53 50.8 °F 28.5 °F 29.85 in SW 7.0 mph 15.0 mph 42 % 0.00 in
23:58 51.6 °F 27.4 °F 29.86 in West 6.9 mph 13.8 mph 39 % 0.00 in
Crab Meadow Weather
Compliments of Weather Underground - 3 mb

Script developed by  Jim McMurry - jmcmurry@mwt.net Adapted for the template by  Wim van der Kuil - Leuven-Template.eu

Astronomy: One day on Uranus is 18 hours